Airfield :
LOGIN :

Register | Disclaimer

   EN    FR    IT 

 










Legend :    VFR   Marginal VFR   IFR   Intensive IFR   Very Intensive IFR
Visi :
Ceiling :
>= 8 km
>= 3000ft
5 to 8 km
1000 to 3000 ft
1500m to 5 km
500 to 1000 ft
800 to 1500m
200 to 500 ft
< 800m
< 200 ft
Symbols :   Thunderstorms  Fog  Heavy snow  Heavy precipitations  Wind > 20 kt
SIGMETs :     Misc.  Thunderstorms  Icing  Turbulence  Mountain Waves  Volcanic Ashes






- Airport Elevation : 63 ft
- IATA code : BZM


EHWO - Woensdrecht Airbase

CURRENT METAR :
  • 211855Z AUTO 04010KT 360V110 9999 NCD 08/01 Q1021 BLU

EXPIRED METARs :
  • 211825Z AUTO 05012KT 350V090 9999 BKN270 09/01 Q1020 BLU
  • 211755Z AUTO 04012KT 350V080 9999 BKN033 11/03 Q1020 BLU
  • 211725Z AUTO 36012KT 300V080 9999 FEW031 12/04 Q1020 BLU
  • 211655Z AUTO 36012KT 300V060 9999 FEW034 12/04 Q1019 BLU
  • 211625Z AUTO 35011KT 260V070 9999 FEW035 13/05 Q1019 BLU

Expired Forecast.



MET'MAP, your aeronautical weather chart ! - Copyright ORBIFLY December 2007 - Disclaimer

ORBIFLY MET'MAP TEAM :

Programming & Development : Alexandra Zaïnal
Concept & original design : Baudouin d'Aumeries
Assistance for programming : Marc-Olivier Méhu
Technical & hardware support : Manuel Goepfert

Contact : metmap@orbifly.com




SOURCES & CREDITS :

   NOAA